Hlavní strana
METAR-TAF:

METAR-TAF

Letiště :

Nuakšott, Mauritánie

zeměpisná šířka: 18-18-36N, zeměpisná délka: 015-58-11W, výška: 3 m

Aktuální stav počasí

Zpráva byla vytvořena před 30 minutami, v 16:00 UTC
Západoseverozápadní vítr 13 kt
Teplota 21°C
Vlhkost vzduchu 73%
Tlak 1010 hPa
Viditelnost: 6000 m
Skoro jasno ve výšce 2000 ft

METAR: GQNO 221600Z 30013KT 6000 FEW020 21/16 Q1010 NOSIG

Čas: 16:30 (16:30 UTC)

Předpověď počasí

Zpráva byla vytvořena před 11 hodinami a 30 minutami, v 05:00 UTC
Předpověď platná od 22 v 06 UTC do 23 v 12 UTC
Severozápadní vítr 14 kt
Viditelnost: 7000 m
Pravděpodobnost 40% :
Dočasný
od 22 v 06 UTC do 22 v 09 UTC
Severozápadní vítr 4 kt
Viditelnost: 3500 m
Oblačno až skoro zataženo ve výšce 800 ft
kouřmo

TAF: GQNO 220500Z 2206/2312 31014KT 7000 NSC PROB40 TEMPO 2206/2209 32004KT 3500 BR BKN008

Stav a předpovědi počasí z více než 4 000 letišť (zprávy METAR a TAF).

Červené a žluté tečky na mapě představují dostupné meteorologické stanice.

Když kurzor umístíte na tečku, zobrazí se název stanice.

Pak kliknutím zobrazíte stav a předpověď počasí.

Chcete-li změnit mapu, kliknutím na zelené tlačítko se znaménkem +mapu přiblížíte, kliknutím na zelené tlačítko se znaménkem – mapu oddálíte a kliknutím na zelené šipky přejdete na sousední mapy.


METAR-TAF: